T05 EFRO-EFRO
Flight info
| Callsign | T05 |
|---|---|
| Flight time | 0h 52m |
| Altitude | 6000 |
| Route | TC NILJA DCT TA DCT TEMMO |
| Aircraft | PC12/L-SDFGRWY/S |
Departure
| Time | 2026-04-29 12:42 |
|---|---|
| Airport | Rovaniemi Airport (EFRO) |
Arrival
| Time | 2026-04-29 13:35 |
|---|---|
| Airport | Rovaniemi Airport (EFRO) |
| Time | Latitude | Longitude | Altitude | Speed | Heading |
|---|---|---|---|---|---|
| 2026-04-29 12:33 | 66.56774 | 25.82765 | 667 ft | 0 kts | 307° |
| 2026-04-29 12:38 | 66.56795 | 25.82764 | 668 ft | 8 kts | 43° |
| 2026-04-29 12:38 | 66.56840 | 25.82951 | 666 ft | 17 kts | 59° |
| 2026-04-29 12:39 | 66.56926 | 25.83164 | 658 ft | 12 kts | 33° |
| 2026-04-29 12:39 | 66.56985 | 25.83290 | 656 ft | 14 kts | 28° |
| 2026-04-29 12:39 | 66.57095 | 25.83296 | 656 ft | 19 kts | 350° |
| 2026-04-29 12:39 | 66.57240 | 25.83242 | 651 ft | 23 kts | 352° |
| 2026-04-29 12:40 | 66.57319 | 25.83442 | 645 ft | 21 kts | 99° |
| 2026-04-29 12:40 | 66.57297 | 25.83860 | 634 ft | 26 kts | 97° |
| 2026-04-29 12:40 | 66.57278 | 25.84181 | 628 ft | 16 kts | 111° |
| 2026-04-29 12:40 | 66.57194 | 25.84330 | 630 ft | 14 kts | 168° |
| 2026-04-29 12:41 | 66.57144 | 25.84290 | 631 ft | 0 kts | 218° |
| 2026-04-29 12:41 | 66.57030 | 25.84075 | 636 ft | 47 kts | 218° |
| 2026-04-29 12:41 | 66.56624 | 25.83304 | 650 ft | 96 kts | 217° |
| 2026-04-29 12:42 | 66.56046 | 25.82186 | 911 ft | 111 kts | 220° |
| 2026-04-29 12:42 | 66.55389 | 25.80875 | 1157 ft | 133 kts | 222° |
| 2026-04-29 12:42 | 66.54543 | 25.80376 | 1419 ft | 146 kts | 149° |
| 2026-04-29 12:42 | 66.54403 | 25.82932 | 1218 ft | 182 kts | 57° |
| 2026-04-29 12:43 | 66.55324 | 25.85257 | 1162 ft | 193 kts | 45° |
| 2026-04-29 12:43 | 66.56255 | 25.87534 | 1293 ft | 185 kts | 47° |
| 2026-04-29 12:43 | 66.57093 | 25.89786 | 1403 ft | 165 kts | 47° |
| 2026-04-29 12:43 | 66.58044 | 25.90195 | 1171 ft | 156 kts | 313° |
| 2026-04-29 12:44 | 66.58204 | 25.87766 | 1018 ft | 136 kts | 265° |
| 2026-04-29 12:44 | 66.57910 | 25.85827 | 822 ft | 106 kts | 231° |
| 2026-04-29 12:44 | 66.57355 | 25.84696 | 630 ft | 98 kts | 220° |
| 2026-04-29 12:44 | 66.56851 | 25.83743 | 726 ft | 87 kts | 220° |
| 2026-04-29 12:45 | 66.56332 | 25.82755 | 809 ft | 107 kts | 220° |
| 2026-04-29 12:45 | 66.55640 | 25.81388 | 922 ft | 143 kts | 220° |
| 2026-04-29 12:45 | 66.54714 | 25.80153 | 1110 ft | 168 kts | 173° |
| 2026-04-29 12:45 | 66.54394 | 25.82547 | 1205 ft | 197 kts | 43° |
| 2026-04-29 12:46 | 66.55583 | 25.84318 | 1182 ft | 200 kts | 33° |
| 2026-04-29 12:46 | 66.56700 | 25.86224 | 1185 ft | 181 kts | 39° |
| 2026-04-29 12:46 | 66.57611 | 25.88156 | 1041 ft | 165 kts | 43° |
| 2026-04-29 12:46 | 66.58371 | 25.87919 | 946 ft | 146 kts | 256° |
| 2026-04-29 12:47 | 66.57879 | 25.85870 | 782 ft | 119 kts | 232° |
| 2026-04-29 12:47 | 66.57331 | 25.84646 | 626 ft | 95 kts | 221° |
| 2026-04-29 12:47 | 66.56834 | 25.83714 | 762 ft | 88 kts | 219° |
| 2026-04-29 12:47 | 66.56253 | 25.82585 | 834 ft | 126 kts | 219° |
| 2026-04-29 12:48 | 66.55476 | 25.81046 | 1013 ft | 157 kts | 221° |
| 2026-04-29 12:48 | 66.54518 | 25.79611 | 1375 ft | 169 kts | 182° |
| 2026-04-29 12:48 | 66.53775 | 25.81759 | 1356 ft | 204 kts | 82° |
| 2026-04-29 12:48 | 66.54748 | 25.84266 | 1471 ft | 203 kts | 36° |
| 2026-04-29 12:49 | 66.55810 | 25.86303 | 1559 ft | 176 kts | 43° |
| 2026-04-29 12:49 | 66.56670 | 25.88233 | 1467 ft | 158 kts | 45° |
| 2026-04-29 12:49 | 66.57485 | 25.89603 | 1372 ft | 138 kts | 352° |
| 2026-04-29 12:49 | 66.58136 | 25.88244 | 1212 ft | 105 kts | 302° |
| 2026-04-29 12:50 | 66.58100 | 25.86478 | 933 ft | 108 kts | 244° |
| 2026-04-29 12:50 | 66.57584 | 25.85133 | 677 ft | 106 kts | 219° |
| 2026-04-29 12:50 | 66.57037 | 25.84084 | 650 ft | 95 kts | 218° |
| 2026-04-29 12:50 | 66.56501 | 25.83103 | 819 ft | 105 kts | 220° |
| 2026-04-29 12:51 | 66.55816 | 25.81818 | 980 ft | 138 kts | 219° |
| 2026-04-29 12:51 | 66.54986 | 25.80165 | 1215 ft | 163 kts | 214° |
| 2026-04-29 12:51 | 66.53856 | 25.80129 | 1493 ft | 183 kts | 150° |
| 2026-04-29 12:51 | 66.53361 | 25.83065 | 1626 ft | 206 kts | 82° |
| 2026-04-29 12:52 | 66.54278 | 25.85769 | 1685 ft | 215 kts | 31° |
| 2026-04-29 12:52 | 66.55561 | 25.87697 | 1713 ft | 210 kts | 36° |
| 2026-04-29 12:52 | 66.56711 | 25.89811 | 1568 ft | 201 kts | 41° |
| 2026-04-29 12:52 | 66.57830 | 25.90458 | 1467 ft | 163 kts | 330° |
| 2026-04-29 12:53 | 66.58260 | 25.88360 | 1290 ft | 120 kts | 275° |
| 2026-04-29 12:53 | 66.58121 | 25.86395 | 904 ft | 110 kts | 245° |
| 2026-04-29 12:53 | 66.57583 | 25.85140 | 662 ft | 104 kts | 220° |
| 2026-04-29 12:53 | 66.57044 | 25.84073 | 664 ft | 93 kts | 220° |
| 2026-04-29 12:54 | 66.56519 | 25.83124 | 812 ft | 101 kts | 220° |
| 2026-04-29 12:54 | 66.55867 | 25.81838 | 945 ft | 136 kts | 220° |
| 2026-04-29 12:54 | 66.55036 | 25.80215 | 1136 ft | 163 kts | 212° |
| 2026-04-29 12:54 | 66.54003 | 25.80871 | 1472 ft | 180 kts | 119° |
| 2026-04-29 12:55 | 66.54483 | 25.83641 | 1465 ft | 198 kts | 43° |
| 2026-04-29 12:55 | 66.55518 | 25.86044 | 1463 ft | 202 kts | 45° |
| 2026-04-29 12:55 | 66.56514 | 25.88398 | 1488 ft | 192 kts | 46° |
| 2026-04-29 12:55 | 66.57465 | 25.90401 | 1495 ft | 165 kts | 22° |
| 2026-04-29 12:56 | 66.58472 | 25.89919 | 1306 ft | 148 kts | 305° |
| 2026-04-29 12:56 | 66.58498 | 25.87598 | 1080 ft | 134 kts | 250° |
| 2026-04-29 12:56 | 66.57997 | 25.85919 | 842 ft | 111 kts | 221° |
| 2026-04-29 12:56 | 66.57411 | 25.84805 | 633 ft | 99 kts | 220° |
| 2026-04-29 12:57 | 66.56890 | 25.83835 | 701 ft | 93 kts | 216° |
| 2026-04-29 12:57 | 66.56336 | 25.82841 | 931 ft | 100 kts | 217° |
| 2026-04-29 12:57 | 66.55770 | 25.81642 | 1198 ft | 113 kts | 245° |
| 2026-04-29 12:57 | 66.55632 | 25.79652 | 1520 ft | 119 kts | 250° |
| 2026-04-29 12:58 | 66.55306 | 25.77711 | 1899 ft | 121 kts | 246° |
| 2026-04-29 12:58 | 66.54964 | 25.75817 | 2346 ft | 121 kts | 245° |
| 2026-04-29 12:58 | 66.54588 | 25.73794 | 2766 ft | 136 kts | 245° |
| 2026-04-29 12:58 | 66.54158 | 25.71509 | 3204 ft | 154 kts | 245° |
| 2026-04-29 12:59 | 66.53679 | 25.68970 | 3630 ft | 168 kts | 245° |
| 2026-04-29 12:59 | 66.53160 | 25.66246 | 4065 ft | 178 kts | 245° |
| 2026-04-29 12:59 | 66.52611 | 25.63381 | 4496 ft | 186 kts | 244° |
| 2026-04-29 12:59 | 66.52039 | 25.60405 | 4922 ft | 192 kts | 244° |
| 2026-04-29 13:00 | 66.51451 | 25.57349 | 5348 ft | 197 kts | 244° |
| 2026-04-29 13:00 | 66.50849 | 25.54227 | 5765 ft | 200 kts | 244° |
| 2026-04-29 13:00 | 66.50216 | 25.50942 | 5827 ft | 219 kts | 244° |
| 2026-04-29 13:00 | 66.49528 | 25.47376 | 5831 ft | 233 kts | 245° |
| 2026-04-29 13:01 | 66.49138 | 25.43412 | 5827 ft | 240 kts | 266° |
| 2026-04-29 13:01 | 66.48423 | 25.39765 | 5572 ft | 249 kts | 233° |
| 2026-04-29 13:01 | 66.47617 | 25.35803 | 5029 ft | 258 kts | 246° |
| 2026-04-29 13:01 | 66.46909 | 25.31871 | 4765 ft | 240 kts | 252° |
| 2026-04-29 13:02 | 66.46713 | 25.27962 | 4920 ft | 214 kts | 263° |
| 2026-04-29 13:02 | 66.46392 | 25.24511 | 5149 ft | 196 kts | 253° |
| 2026-04-29 13:02 | 66.45850 | 25.21480 | 5300 ft | 184 kts | 243° |
| 2026-04-29 13:02 | 66.45264 | 25.18779 | 5578 ft | 170 kts | 244° |
| 2026-04-29 13:03 | 66.44690 | 25.16377 | 5971 ft | 155 kts | 239° |
| 2026-04-29 13:03 | 66.44047 | 25.14097 | 6005 ft | 169 kts | 238° |
| 2026-04-29 13:03 | 66.43342 | 25.11611 | 6018 ft | 181 kts | 239° |
| 2026-04-29 13:03 | 66.42598 | 25.08975 | 6027 ft | 190 kts | 238° |
| 2026-04-29 13:04 | 66.41823 | 25.06214 | 6019 ft | 198 kts | 238° |
| 2026-04-29 13:04 | 66.41024 | 25.03362 | 6024 ft | 202 kts | 238° |
| 2026-04-29 13:04 | 66.40215 | 25.00461 | 6022 ft | 205 kts | 239° |
| 2026-04-29 13:04 | 66.39394 | 24.97520 | 6023 ft | 208 kts | 238° |
| 2026-04-29 13:05 | 66.38569 | 24.94552 | 6024 ft | 209 kts | 239° |
| 2026-04-29 13:05 | 66.37742 | 24.91576 | 6028 ft | 209 kts | 238° |
| 2026-04-29 13:05 | 66.36914 | 24.88595 | 6021 ft | 209 kts | 238° |
| 2026-04-29 13:05 | 66.36083 | 24.85603 | 6024 ft | 210 kts | 239° |
| 2026-04-29 13:06 | 66.35248 | 24.82596 | 6020 ft | 211 kts | 239° |
| 2026-04-29 13:06 | 66.34409 | 24.79586 | 6020 ft | 212 kts | 238° |
| 2026-04-29 13:06 | 66.33566 | 24.76566 | 6018 ft | 212 kts | 238° |
| 2026-04-29 13:06 | 66.32725 | 24.73556 | 6019 ft | 211 kts | 238° |
| 2026-04-29 13:07 | 66.31887 | 24.70558 | 6022 ft | 211 kts | 238° |
| 2026-04-29 13:07 | 66.31047 | 24.67552 | 6017 ft | 211 kts | 238° |
| 2026-04-29 13:07 | 66.30208 | 24.64555 | 6014 ft | 211 kts | 238° |
| 2026-04-29 13:07 | 66.29366 | 24.61564 | 6025 ft | 211 kts | 238° |
| 2026-04-29 13:08 | 66.28524 | 24.58572 | 6022 ft | 211 kts | 238° |
| 2026-04-29 13:08 | 66.27680 | 24.55591 | 6024 ft | 211 kts | 238° |
| 2026-04-29 13:08 | 66.26837 | 24.52608 | 6014 ft | 210 kts | 238° |
| 2026-04-29 13:08 | 66.25989 | 24.49721 | 6015 ft | 204 kts | 236° |
| 2026-04-29 13:09 | 66.24964 | 24.47223 | 5776 ft | 213 kts | 218° |
| 2026-04-29 13:09 | 66.23684 | 24.45320 | 5582 ft | 209 kts | 219° |
| 2026-04-29 13:09 | 66.22735 | 24.42827 | 5573 ft | 194 kts | 232° |
| 2026-04-29 13:09 | 66.21868 | 24.40311 | 5375 ft | 191 kts | 240° |
| 2026-04-29 13:10 | 66.21692 | 24.37297 | 5347 ft | 178 kts | 287° |
| 2026-04-29 13:10 | 66.22487 | 24.35116 | 5463 ft | 167 kts | 334° |
| 2026-04-29 13:10 | 66.23617 | 24.34716 | 5504 ft | 165 kts | 355° |
| 2026-04-29 13:10 | 66.24784 | 24.34619 | 5489 ft | 169 kts | 354° |
| 2026-04-29 13:11 | 66.25948 | 24.34474 | 5535 ft | 171 kts | 354° |
| 2026-04-29 13:11 | 66.27145 | 24.34251 | 5595 ft | 171 kts | 352° |
| 2026-04-29 13:11 | 66.28294 | 24.33858 | 5790 ft | 163 kts | 344° |
| 2026-04-29 13:11 | 66.29395 | 24.33205 | 5844 ft | 163 kts | 343° |
| 2026-04-29 13:12 | 66.30496 | 24.32564 | 5949 ft | 163 kts | 345° |
| 2026-04-29 13:12 | 66.31596 | 24.31838 | 5970 ft | 165 kts | 340° |
| 2026-04-29 13:12 | 66.32629 | 24.30686 | 5958 ft | 165 kts | 306° |
| 2026-04-29 13:12 | 66.32205 | 24.28375 | 5403 ft | 210 kts | 189° |
| 2026-04-29 13:13 | 66.30750 | 24.29419 | 5133 ft | 218 kts | 160° |
| 2026-04-29 13:13 | 66.29410 | 24.30984 | 5097 ft | 208 kts | 154° |
| 2026-04-29 13:13 | 66.28181 | 24.32729 | 5028 ft | 203 kts | 150° |
| 2026-04-29 13:13 | 66.26969 | 24.34425 | 5006 ft | 195 kts | 154° |
| 2026-04-29 13:14 | 66.25754 | 24.35667 | 5064 ft | 181 kts | 170° |
| 2026-04-29 13:14 | 66.24500 | 24.36487 | 4797 ft | 192 kts | 166° |
| 2026-04-29 13:14 | 66.23373 | 24.36142 | 5205 ft | 154 kts | 217° |
| 2026-04-29 13:14 | 66.22777 | 24.34064 | 5256 ft | 150 kts | 256° |
| 2026-04-29 13:15 | 66.22773 | 24.31581 | 5389 ft | 140 kts | 289° |
| 2026-04-29 13:15 | 66.23478 | 24.30137 | 5485 ft | 141 kts | 345° |
| 2026-04-29 13:15 | 66.24480 | 24.29691 | 5405 ft | 149 kts | 345° |
| 2026-04-29 13:15 | 66.25510 | 24.29233 | 5419 ft | 153 kts | 346° |
| 2026-04-29 13:16 | 66.26563 | 24.28753 | 5415 ft | 154 kts | 346° |
| 2026-04-29 13:16 | 66.27623 | 24.28269 | 5420 ft | 156 kts | 346° |
| 2026-04-29 13:16 | 66.28336 | 24.27944 | 5416 ft | 158 kts | 346° |
| 2026-04-29 13:16 | 66.29425 | 24.27450 | 5422 ft | 159 kts | 346° |
| 2026-04-29 13:17 | 66.30521 | 24.26945 | 5419 ft | 161 kts | 346° |
| 2026-04-29 13:17 | 66.31616 | 24.26396 | 5414 ft | 159 kts | 336° |
| 2026-04-29 13:17 | 66.32344 | 24.24552 | 5425 ft | 153 kts | 285° |
| 2026-04-29 13:17 | 66.32138 | 24.22015 | 5428 ft | 160 kts | 233° |
| 2026-04-29 13:18 | 66.31122 | 24.20909 | 5431 ft | 171 kts | 180° |
| 2026-04-29 13:18 | 66.30054 | 24.22208 | 5424 ft | 176 kts | 138° |
| 2026-04-29 13:18 | 66.29190 | 24.24364 | 5427 ft | 176 kts | 135° |
| 2026-04-29 13:18 | 66.28334 | 24.26562 | 5422 ft | 178 kts | 135° |
| 2026-04-29 13:19 | 66.27475 | 24.28781 | 5425 ft | 179 kts | 135° |
| 2026-04-29 13:19 | 66.26613 | 24.31008 | 5417 ft | 178 kts | 135° |
| 2026-04-29 13:19 | 66.25751 | 24.33233 | 5423 ft | 179 kts | 135° |
| 2026-04-29 13:19 | 66.24886 | 24.35467 | 5419 ft | 179 kts | 135° |
| 2026-04-29 13:20 | 66.24022 | 24.37696 | 5419 ft | 179 kts | 135° |
| 2026-04-29 13:20 | 66.23162 | 24.39916 | 5420 ft | 178 kts | 133° |
| 2026-04-29 13:20 | 66.22666 | 24.42656 | 5422 ft | 175 kts | 99° |
| 2026-04-29 13:20 | 66.22841 | 24.45535 | 5424 ft | 170 kts | 58° |
| 2026-04-29 13:21 | 66.23444 | 24.48037 | 5422 ft | 169 kts | 54° |
| 2026-04-29 13:21 | 66.24070 | 24.50504 | 5416 ft | 169 kts | 54° |
| 2026-04-29 13:21 | 66.24701 | 24.52978 | 5419 ft | 170 kts | 54° |
| 2026-04-29 13:21 | 66.25265 | 24.55551 | 5416 ft | 171 kts | 60° |
| 2026-04-29 13:22 | 66.25780 | 24.58217 | 5421 ft | 172 kts | 61° |
| 2026-04-29 13:22 | 66.26289 | 24.60874 | 5417 ft | 172 kts | 61° |
| 2026-04-29 13:22 | 66.26807 | 24.63570 | 5368 ft | 177 kts | 61° |
| 2026-04-29 13:22 | 66.27358 | 24.66397 | 5187 ft | 186 kts | 62° |
| 2026-04-29 13:23 | 66.27943 | 24.69329 | 5011 ft | 193 kts | 62° |
| 2026-04-29 13:23 | 66.28560 | 24.72344 | 4804 ft | 198 kts | 61° |
| 2026-04-29 13:23 | 66.29205 | 24.75470 | 4528 ft | 206 kts | 62° |
| 2026-04-29 13:23 | 66.29868 | 24.78670 | 4284 ft | 210 kts | 61° |
| 2026-04-29 13:24 | 66.30538 | 24.81910 | 4060 ft | 211 kts | 62° |
| 2026-04-29 13:24 | 66.31211 | 24.85163 | 3843 ft | 212 kts | 62° |
| 2026-04-29 13:24 | 66.31884 | 24.88416 | 3649 ft | 212 kts | 61° |
| 2026-04-29 13:24 | 66.32552 | 24.91640 | 3546 ft | 208 kts | 62° |
| 2026-04-29 13:25 | 66.33209 | 24.94808 | 3444 ft | 204 kts | 61° |
| 2026-04-29 13:25 | 66.34491 | 25.01032 | 3216 ft | 200 kts | 61° |
| 2026-04-29 13:25 | 66.35120 | 25.04101 | 3106 ft | 199 kts | 62° |
| 2026-04-29 13:26 | 66.35750 | 25.07174 | 3036 ft | 198 kts | 62° |
| 2026-04-29 13:26 | 66.36365 | 25.10170 | 3020 ft | 192 kts | 62° |
| 2026-04-29 13:26 | 66.36960 | 25.13089 | 3016 ft | 186 kts | 62° |
| 2026-04-29 13:26 | 66.37539 | 25.15941 | 3013 ft | 183 kts | 62° |
| 2026-04-29 13:27 | 66.38113 | 25.18763 | 3015 ft | 182 kts | 62° |
| 2026-04-29 13:27 | 66.38682 | 25.21547 | 3009 ft | 179 kts | 62° |
| 2026-04-29 13:27 | 66.39251 | 25.24332 | 3012 ft | 180 kts | 62° |
| 2026-04-29 13:27 | 66.39813 | 25.27114 | 3006 ft | 178 kts | 62° |
| 2026-04-29 13:28 | 66.40368 | 25.29870 | 3008 ft | 177 kts | 62° |
| 2026-04-29 13:28 | 66.40921 | 25.32624 | 3007 ft | 178 kts | 62° |
| 2026-04-29 13:28 | 66.41485 | 25.35412 | 3021 ft | 181 kts | 62° |
| 2026-04-29 13:28 | 66.42059 | 25.38246 | 3000 ft | 182 kts | 62° |
| 2026-04-29 13:29 | 66.42627 | 25.41062 | 2935 ft | 183 kts | 62° |
| 2026-04-29 13:29 | 66.43205 | 25.43942 | 2816 ft | 189 kts | 64° |
| 2026-04-29 13:29 | 66.43799 | 25.46893 | 2674 ft | 191 kts | 62° |
| 2026-04-29 13:29 | 66.44401 | 25.49877 | 2542 ft | 195 kts | 62° |
| 2026-04-29 13:30 | 66.45006 | 25.52865 | 2437 ft | 198 kts | 62° |
| 2026-04-29 13:30 | 66.45634 | 25.55983 | 2279 ft | 200 kts | 62° |
| 2026-04-29 13:30 | 66.46324 | 25.59030 | 2149 ft | 203 kts | 54° |
| 2026-04-29 13:30 | 66.47220 | 25.61680 | 2010 ft | 197 kts | 38° |
| 2026-04-29 13:31 | 66.48240 | 25.63870 | 1994 ft | 187 kts | 38° |
| 2026-04-29 13:31 | 66.49202 | 25.65873 | 1988 ft | 173 kts | 36° |
| 2026-04-29 13:31 | 66.50097 | 25.67696 | 1989 ft | 160 kts | 36° |
| 2026-04-29 13:31 | 66.50926 | 25.69473 | 1978 ft | 154 kts | 38° |
| 2026-04-29 13:32 | 66.51730 | 25.71237 | 1902 ft | 154 kts | 38° |
| 2026-04-29 13:32 | 66.52553 | 25.72984 | 1770 ft | 156 kts | 37° |
| 2026-04-29 13:32 | 66.53386 | 25.74735 | 1642 ft | 156 kts | 37° |
| 2026-04-29 13:32 | 66.54236 | 25.76440 | 1506 ft | 157 kts | 35° |
| 2026-04-29 13:33 | 66.55091 | 25.78123 | 1365 ft | 156 kts | 34° |
| 2026-04-29 13:33 | 66.55950 | 25.79800 | 1225 ft | 156 kts | 34° |
| 2026-04-29 13:33 | 66.56795 | 25.81466 | 1085 ft | 151 kts | 35° |
| 2026-04-29 13:33 | 66.57600 | 25.83059 | 999 ft | 141 kts | 35° |
| 2026-04-29 13:34 | 66.58332 | 25.84506 | 1000 ft | 125 kts | 34° |
| 2026-04-29 13:34 | 66.58897 | 25.85811 | 1059 ft | 99 kts | 66° |
| 2026-04-29 13:34 | 66.58519 | 25.86788 | 918 ft | 106 kts | 204° |
| 2026-04-29 13:34 | 66.57862 | 25.85680 | 741 ft | 121 kts | 220° |
| 2026-04-29 13:35 | 66.57224 | 25.84448 | 622 ft | 104 kts | 221° |
| 2026-04-29 13:35 | 66.56829 | 25.83686 | 629 ft | 36 kts | 217° |
| 2026-04-29 13:35 | 66.56661 | 25.83333 | 633 ft | 30 kts | 218° |
| 2026-04-29 13:35 | 66.56438 | 25.82952 | 634 ft | 42 kts | 217° |
| 2026-04-29 13:36 | 66.56307 | 25.82523 | 634 ft | 26 kts | 304° |
| 2026-04-29 13:36 | 66.56401 | 25.82263 | 638 ft | 20 kts | 339° |
| 2026-04-29 13:36 | 66.56498 | 25.82365 | 642 ft | 14 kts | 37° |
| 2026-04-29 13:36 | 66.56562 | 25.82483 | 646 ft | 8 kts | 35° |
| 2026-04-29 13:37 | 66.56607 | 25.82568 | 649 ft | 4 kts | 36° |
| 2026-04-29 13:37 | 66.56635 | 25.82621 | 650 ft | 1 kts | 37° |
| 2026-04-29 13:37 | 66.56690 | 25.82718 | 652 ft | 17 kts | 33° |
| 2026-04-29 13:37 | 66.56744 | 25.82717 | 654 ft | 9 kts | 306° |
| 2026-04-29 13:38 | 66.56751 | 25.82695 | 655 ft | 0 kts | 308° |